Williana, Louisiana
Current Conditions -  °F | °C
As of 9:15 AM on Friday 19 Dec 2014 (Local Time) from KAEX Reporting Station
Moderate Rain Moderate Rain  
Wind Chill: 52°   Ceiling: 600
Heat Index: 52°   Visibility: 4mi
Dew Point: 51°   Wind: 7mph
Humidity: 97%   Direction: 110°ESE
Pressure: 30.14"   Gusts: NA
Location:  31.6531°N, 92.5571°W
Report Text: KAEX 191515Z 11006KT 4SM RA BR BKN006 OVC015 11/11 A3014 RMK AO2 P0002 T01110106
Loading
Personal Weather Stations






























Interactive Weather Map New forecast layout! Learn more

10-Day Weather Forecast

Advertisements
Track Severe Weather on mobile